sensor_id;sensor_type;location;lat;lon;timestamp;P1;durP1;ratioP1;P2;durP2;ratioP2
5129;SDS011;2583;50.946;6.954;2023-08-24T00:01:54;7.50;;;3.60;;
5129;SDS011;2583;50.946;6.954;2023-08-24T00:04:21;8.07;;;3.90;;
5129;SDS011;2583;50.946;6.954;2023-08-24T00:06:49;7.67;;;3.70;;
5129;SDS011;2583;50.946;6.954;2023-08-24T00:09:15;4.20;;;3.80;;
5129;SDS011;2583;50.946;6.954;2023-08-24T00:11:42;4.37;;;3.97;;
5129;SDS011;2583;50.946;6.954;2023-08-24T00:14:09;3.87;;;3.30;;
5129;SDS011;2583;50.946;6.954;2023-08-24T00:16:36;4.67;;;3.70;;
5129;SDS011;2583;50.946;6.954;2023-08-24T00:19:03;4.07;;;3.77;;
5129;SDS011;2583;50.946;6.954;2023-08-24T00:21:30;4.33;;;3.40;;
5129;SDS011;2583;50.946;6.954;2023-08-24T00:23:57;6.27;;;3.83;;
5129;SDS011;2583;50.946;6.954;2023-08-24T00:26:25;4.50;;;3.13;;
5129;SDS011;2583;50.946;6.954;2023-08-24T00:28:52;6.57;;;3.20;;
5129;SDS011;2583;50.946;6.954;2023-08-24T00:31:19;4.07;;;3.67;;
5129;SDS011;2583;50.946;6.954;2023-08-24T00:33:46;7.30;;;3.50;;
5129;SDS011;2583;50.946;6.954;2023-08-24T00:36:13;4.90;;;4.03;;
5129;SDS011;2583;50.946;6.954;2023-08-24T00:38:40;3.67;;;3.30;;
5129;SDS011;2583;50.946;6.954;2023-08-24T00:41:07;4.13;;;3.80;;
5129;SDS011;2583;50.946;6.954;2023-08-24T00:43:33;6.60;;;3.60;;
5129;SDS011;2583;50.946;6.954;2023-08-24T00:46:02;5.57;;;3.60;;
5129;SDS011;2583;50.946;6.954;2023-08-24T00:48:30;6.37;;;3.50;;
5129;SDS011;2583;50.946;6.954;2023-08-24T00:50:59;3.63;;;3.33;;
5129;SDS011;2583;50.946;6.954;2023-08-24T00:53:27;6.23;;;3.30;;
5129;SDS011;2583;50.946;6.954;2023-08-24T00:55:55;5.27;;;3.50;;
5129;SDS011;2583;50.946;6.954;2023-08-24T00:58:23;8.13;;;3.60;;
5129;SDS011;2583;50.946;6.954;2023-08-24T01:00:50;5.40;;;4.20;;
5129;SDS011;2583;50.946;6.954;2023-08-24T01:03:21;5.13;;;3.93;;
5129;SDS011;2583;50.946;6.954;2023-08-24T01:05:49;5.23;;;4.33;;
5129;SDS011;2583;50.946;6.954;2023-08-24T01:08:17;5.87;;;3.50;;
5129;SDS011;2583;50.946;6.954;2023-08-24T01:13:55;4.07;;;3.40;;
5129;SDS011;2583;50.946;6.954;2023-08-24T01:16:31;9.53;;;3.43;;
5129;SDS011;2583;50.946;6.954;2023-08-24T01:18:59;3.60;;;3.30;;
5129;SDS011;2583;50.946;6.954;2023-08-24T01:21:29;4.30;;;3.90;;
5129;SDS011;2583;50.946;6.954;2023-08-24T01:24:10;3.90;;;3.50;;
5129;SDS011;2583;50.946;6.954;2023-08-24T01:26:43;3.87;;;2.83;;
5129;SDS011;2583;50.946;6.954;2023-08-24T01:29:10;4.40;;;4.03;;
5129;SDS011;2583;50.946;6.954;2023-08-24T01:31:37;3.93;;;3.63;;
5129;SDS011;2583;50.946;6.954;2023-08-24T01:34:04;4.47;;;3.70;;
5129;SDS011;2583;50.946;6.954;2023-08-24T01:36:30;4.80;;;3.17;;
5129;SDS011;2583;50.946;6.954;2023-08-24T01:39:02;3.80;;;3.50;;
5129;SDS011;2583;50.946;6.954;2023-08-24T01:41:39;5.33;;;4.23;;
5129;SDS011;2583;50.946;6.954;2023-08-24T01:44:10;4.43;;;3.67;;
5129;SDS011;2583;50.946;6.954;2023-08-24T01:46:40;5.57;;;3.50;;
5129;SDS011;2583;50.946;6.954;2023-08-24T01:49:12;6.10;;;3.70;;
5129;SDS011;2583;50.946;6.954;2023-08-24T01:51:40;7.23;;;4.10;;
5129;SDS011;2583;50.946;6.954;2023-08-24T01:54:09;5.93;;;3.90;;
5129;SDS011;2583;50.946;6.954;2023-08-24T01:56:36;6.20;;;4.07;;
5129;SDS011;2583;50.946;6.954;2023-08-24T01:59:02;8.00;;;4.10;;
5129;SDS011;2583;50.946;6.954;2023-08-24T02:01:29;5.10;;;3.63;;
5129;SDS011;2583;50.946;6.954;2023-08-24T02:03:56;5.30;;;3.97;;
5129;SDS011;2583;50.946;6.954;2023-08-24T02:06:23;4.50;;;3.50;;
5129;SDS011;2583;50.946;6.954;2023-08-24T02:08:49;6.00;;;4.30;;
5129;SDS011;2583;50.946;6.954;2023-08-24T02:11:16;4.50;;;3.80;;
5129;SDS011;2583;50.946;6.954;2023-08-24T02:13:43;4.70;;;4.30;;
5129;SDS011;2583;50.946;6.954;2023-08-24T02:16:09;7.10;;;3.93;;
5129;SDS011;2583;50.946;6.954;2023-08-24T02:18:38;3.90;;;3.60;;
5129;SDS011;2583;50.946;6.954;2023-08-24T02:21:08;5.00;;;3.60;;
5129;SDS011;2583;50.946;6.954;2023-08-24T02:23:37;5.50;;;4.17;;
5129;SDS011;2583;50.946;6.954;2023-08-24T02:26:04;3.90;;;3.60;;
5129;SDS011;2583;50.946;6.954;2023-08-24T02:28:32;4.20;;;3.80;;
5129;SDS011;2583;50.946;6.954;2023-08-24T02:31:02;4.73;;;4.10;;
5129;SDS011;2583;50.946;6.954;2023-08-24T02:33:29;4.03;;;3.70;;
5129;SDS011;2583;50.946;6.954;2023-08-24T02:35:57;4.83;;;3.83;;
5129;SDS011;2583;50.946;6.954;2023-08-24T02:38:24;4.40;;;4.10;;
5129;SDS011;2583;50.946;6.954;2023-08-24T02:41:04;9.27;;;4.70;;
5129;SDS011;2583;50.946;6.954;2023-08-24T02:43:31;5.00;;;4.50;;
5129;SDS011;2583;50.946;6.954;2023-08-24T02:46:02;4.47;;;3.80;;
5129;SDS011;2583;50.946;6.954;2023-08-24T02:48:31;7.70;;;3.80;;
5129;SDS011;2583;50.946;6.954;2023-08-24T02:50:59;5.30;;;4.03;;
5129;SDS011;2583;50.946;6.954;2023-08-24T02:53:26;10.13;;;3.77;;
5129;SDS011;2583;50.946;6.954;2023-08-24T02:55:53;6.33;;;4.67;;
5129;SDS011;2583;50.946;6.954;2023-08-24T02:58:20;9.20;;;3.73;;
5129;SDS011;2583;50.946;6.954;2023-08-24T03:00:47;6.27;;;4.77;;
5129;SDS011;2583;50.946;6.954;2023-08-24T03:03:14;4.30;;;3.90;;
5129;SDS011;2583;50.946;6.954;2023-08-24T03:05:51;4.13;;;3.73;;
5129;SDS011;2583;50.946;6.954;2023-08-24T03:08:20;6.40;;;4.20;;
5129;SDS011;2583;50.946;6.954;2023-08-24T03:10:47;4.53;;;4.13;;
5129;SDS011;2583;50.946;6.954;2023-08-24T03:13:14;7.10;;;4.20;;
5129;SDS011;2583;50.946;6.954;2023-08-24T03:15:40;5.87;;;4.20;;
5129;SDS011;2583;50.946;6.954;2023-08-24T03:18:07;6.87;;;4.00;;
5129;SDS011;2583;50.946;6.954;2023-08-24T03:20:34;4.47;;;4.00;;
5129;SDS011;2583;50.946;6.954;2023-08-24T03:23:01;4.87;;;4.40;;
5129;SDS011;2583;50.946;6.954;2023-08-24T03:25:29;8.87;;;4.83;;
5129;SDS011;2583;50.946;6.954;2023-08-24T03:27:57;4.20;;;3.90;;
5129;SDS011;2583;50.946;6.954;2023-08-24T03:30:23;5.70;;;4.13;;
5129;SDS011;2583;50.946;6.954;2023-08-24T03:32:50;4.67;;;3.53;;
5129;SDS011;2583;50.946;6.954;2023-08-24T03:35:17;3.70;;;3.40;;
5129;SDS011;2583;50.946;6.954;2023-08-24T03:37:44;5.83;;;3.70;;
5129;SDS011;2583;50.946;6.954;2023-08-24T03:40:11;4.00;;;3.70;;
5129;SDS011;2583;50.946;6.954;2023-08-24T03:42:38;6.03;;;4.07;;
5129;SDS011;2583;50.946;6.954;2023-08-24T03:45:05;4.80;;;4.00;;
5129;SDS011;2583;50.946;6.954;2023-08-24T03:47:32;4.60;;;4.20;;
5129;SDS011;2583;50.946;6.954;2023-08-24T03:50:00;3.90;;;3.60;;
5129;SDS011;2583;50.946;6.954;2023-08-24T03:52:27;4.47;;;3.57;;
5129;SDS011;2583;50.946;6.954;2023-08-24T03:54:54;3.67;;;3.37;;
5129;SDS011;2583;50.946;6.954;2023-08-24T03:57:20;4.03;;;3.70;;
5129;SDS011;2583;50.946;6.954;2023-08-24T03:59:47;4.43;;;4.10;;
5129;SDS011;2583;50.946;6.954;2023-08-24T04:02:15;5.30;;;4.10;;
5129;SDS011;2583;50.946;6.954;2023-08-24T04:04:41;6.73;;;3.77;;
5129;SDS011;2583;50.946;6.954;2023-08-24T04:07:08;4.47;;;4.07;;
5129;SDS011;2583;50.946;6.954;2023-08-24T04:09:35;4.70;;;4.00;;
5129;SDS011;2583;50.946;6.954;2023-08-24T04:12:02;4.80;;;3.60;;
5129;SDS011;2583;50.946;6.954;2023-08-24T04:14:28;7.80;;;4.30;;
5129;SDS011;2583;50.946;6.954;2023-08-24T04:16:55;8.50;;;3.90;;
5129;SDS011;2583;50.946;6.954;2023-08-24T04:19:22;13.83;;;4.43;;
5129;SDS011;2583;50.946;6.954;2023-08-24T04:21:49;4.73;;;3.77;;
5129;SDS011;2583;50.946;6.954;2023-08-24T04:24:15;9.03;;;4.77;;
5129;SDS011;2583;50.946;6.954;2023-08-24T04:26:42;4.70;;;4.20;;
5129;SDS011;2583;50.946;6.954;2023-08-24T04:29:09;13.27;;;5.20;;
5129;SDS011;2583;50.946;6.954;2023-08-24T04:31:36;9.00;;;4.40;;
5129;SDS011;2583;50.946;6.954;2023-08-24T04:34:03;4.40;;;4.10;;
5129;SDS011;2583;50.946;6.954;2023-08-24T04:36:30;8.03;;;4.17;;
5129;SDS011;2583;50.946;6.954;2023-08-24T04:38:57;8.03;;;4.53;;
5129;SDS011;2583;50.946;6.954;2023-08-24T04:41:24;5.50;;;5.00;;
5129;SDS011;2583;50.946;6.954;2023-08-24T04:43:51;5.33;;;4.27;;
5129;SDS011;2583;50.946;6.954;2023-08-24T04:46:17;6.13;;;4.47;;
5129;SDS011;2583;50.946;6.954;2023-08-24T04:48:44;10.53;;;4.50;;
5129;SDS011;2583;50.946;6.954;2023-08-24T04:51:11;5.40;;;4.90;;
5129;SDS011;2583;50.946;6.954;2023-08-24T04:53:37;11.87;;;5.67;;
5129;SDS011;2583;50.946;6.954;2023-08-24T04:56:04;8.73;;;5.00;;
5129;SDS011;2583;50.946;6.954;2023-08-24T04:58:32;7.43;;;4.40;;
5129;SDS011;2583;50.946;6.954;2023-08-24T05:01:00;10.03;;;5.07;;
5129;SDS011;2583;50.946;6.954;2023-08-24T05:03:26;5.40;;;5.00;;
5129;SDS011;2583;50.946;6.954;2023-08-24T05:05:53;9.10;;;5.30;;
5129;SDS011;2583;50.946;6.954;2023-08-24T05:08:20;5.80;;;5.37;;
5129;SDS011;2583;50.946;6.954;2023-08-24T05:10:47;5.53;;;5.13;;
5129;SDS011;2583;50.946;6.954;2023-08-24T05:13:13;7.77;;;4.70;;
5129;SDS011;2583;50.946;6.954;2023-08-24T05:15:41;8.63;;;4.83;;
5129;SDS011;2583;50.946;6.954;2023-08-24T05:18:07;5.70;;;5.20;;
5129;SDS011;2583;50.946;6.954;2023-08-24T05:20:34;6.10;;;5.70;;
5129;SDS011;2583;50.946;6.954;2023-08-24T05:23:01;10.50;;;4.83;;
5129;SDS011;2583;50.946;6.954;2023-08-24T05:25:28;5.50;;;4.80;;
5129;SDS011;2583;50.946;6.954;2023-08-24T05:27:54;5.90;;;5.47;;
5129;SDS011;2583;50.946;6.954;2023-08-24T05:30:21;6.87;;;5.00;;
5129;SDS011;2583;50.946;6.954;2023-08-24T05:32:48;5.93;;;5.10;;
5129;SDS011;2583;50.946;6.954;2023-08-24T05:35:15;5.73;;;5.03;;
5129;SDS011;2583;50.946;6.954;2023-08-24T05:37:41;6.63;;;6.00;;
5129;SDS011;2583;50.946;6.954;2023-08-24T05:40:08;5.10;;;4.73;;
5129;SDS011;2583;50.946;6.954;2023-08-24T05:42:35;6.10;;;5.53;;
5129;SDS011;2583;50.946;6.954;2023-08-24T05:45:03;5.97;;;5.57;;
5129;SDS011;2583;50.946;6.954;2023-08-24T05:47:30;10.37;;;5.60;;
5129;SDS011;2583;50.946;6.954;2023-08-24T05:49:57;5.87;;;5.37;;
5129;SDS011;2583;50.946;6.954;2023-08-24T05:52:23;6.13;;;5.53;;
5129;SDS011;2583;50.946;6.954;2023-08-24T05:54:50;6.57;;;5.93;;
5129;SDS011;2583;50.946;6.954;2023-08-24T05:57:17;6.47;;;5.57;;
5129;SDS011;2583;50.946;6.954;2023-08-24T05:59:44;9.33;;;5.83;;
5129;SDS011;2583;50.946;6.954;2023-08-24T06:02:10;6.70;;;6.13;;
5129;SDS011;2583;50.946;6.954;2023-08-24T06:04:37;7.27;;;5.83;;
5129;SDS011;2583;50.946;6.954;2023-08-24T06:07:04;12.17;;;6.30;;
5129;SDS011;2583;50.946;6.954;2023-08-24T06:09:31;6.77;;;6.07;;
5129;SDS011;2583;50.946;6.954;2023-08-24T06:11:58;9.00;;;6.00;;
5129;SDS011;2583;50.946;6.954;2023-08-24T06:14:24;5.87;;;5.40;;
5129;SDS011;2583;50.946;6.954;2023-08-24T06:16:51;7.73;;;5.57;;
5129;SDS011;2583;50.946;6.954;2023-08-24T06:19:19;6.47;;;5.90;;
5129;SDS011;2583;50.946;6.954;2023-08-24T06:21:46;6.17;;;5.57;;
5129;SDS011;2583;50.946;6.954;2023-08-24T06:24:13;12.70;;;5.80;;
5129;SDS011;2583;50.946;6.954;2023-08-24T06:26:39;5.90;;;5.50;;
5129;SDS011;2583;50.946;6.954;2023-08-24T06:29:06;6.40;;;5.80;;
5129;SDS011;2583;50.946;6.954;2023-08-24T06:31:33;8.20;;;6.00;;
5129;SDS011;2583;50.946;6.954;2023-08-24T06:34:00;6.83;;;6.17;;
5129;SDS011;2583;50.946;6.954;2023-08-24T06:36:27;7.17;;;5.77;;
5129;SDS011;2583;50.946;6.954;2023-08-24T06:38:54;6.37;;;5.77;;
5129;SDS011;2583;50.946;6.954;2023-08-24T06:41:21;7.40;;;6.07;;
5129;SDS011;2583;50.946;6.954;2023-08-24T06:43:48;8.00;;;6.00;;
5129;SDS011;2583;50.946;6.954;2023-08-24T06:46:15;30.77;;;8.20;;
5129;SDS011;2583;50.946;6.954;2023-08-24T06:48:41;12.83;;;8.00;;
5129;SDS011;2583;50.946;6.954;2023-08-24T06:51:09;23.57;;;8.03;;
5129;SDS011;2583;50.946;6.954;2023-08-24T06:53:36;19.53;;;7.60;;
5129;SDS011;2583;50.946;6.954;2023-08-24T06:56:03;10.50;;;5.70;;
5129;SDS011;2583;50.946;6.954;2023-08-24T06:58:30;5.67;;;5.07;;
5129;SDS011;2583;50.946;6.954;2023-08-24T07:00:56;5.50;;;5.00;;
5129;SDS011;2583;50.946;6.954;2023-08-24T07:03:23;4.97;;;4.13;;
5129;SDS011;2583;50.946;6.954;2023-08-24T07:05:50;5.63;;;5.13;;
5129;SDS011;2583;50.946;6.954;2023-08-24T07:08:17;5.33;;;4.93;;
5129;SDS011;2583;50.946;6.954;2023-08-24T07:10:44;5.50;;;4.50;;
5129;SDS011;2583;50.946;6.954;2023-08-24T07:13:11;4.70;;;4.30;;
5129;SDS011;2583;50.946;6.954;2023-08-24T07:15:37;7.03;;;4.07;;
5129;SDS011;2583;50.946;6.954;2023-08-24T07:18:04;4.50;;;4.00;;
5129;SDS011;2583;50.946;6.954;2023-08-24T07:20:32;5.63;;;4.30;;
5129;SDS011;2583;50.946;6.954;2023-08-24T07:22:59;5.33;;;4.43;;
5129;SDS011;2583;50.946;6.954;2023-08-24T07:25:26;3.47;;;3.17;;
5129;SDS011;2583;50.946;6.954;2023-08-24T07:27:54;6.90;;;4.27;;
5129;SDS011;2583;50.946;6.954;2023-08-24T07:30:25;5.10;;;4.60;;
5129;SDS011;2583;50.946;6.954;2023-08-24T07:32:59;6.90;;;3.00;;
5129;SDS011;2583;50.946;6.954;2023-08-24T07:35:27;4.07;;;3.67;;
5129;SDS011;2583;50.946;6.954;2023-08-24T07:37:56;4.73;;;2.93;;
5129;SDS011;2583;50.946;6.954;2023-08-24T07:40:23;5.83;;;3.53;;
5129;SDS011;2583;50.946;6.954;2023-08-24T07:42:51;3.17;;;2.87;;
5129;SDS011;2583;50.946;6.954;2023-08-24T07:45:22;5.93;;;3.00;;
5129;SDS011;2583;50.946;6.954;2023-08-24T07:47:49;3.67;;;3.37;;
5129;SDS011;2583;50.946;6.954;2023-08-24T07:50:17;3.63;;;3.33;;
5129;SDS011;2583;50.946;6.954;2023-08-24T07:52:43;9.73;;;3.90;;
5129;SDS011;2583;50.946;6.954;2023-08-24T07:55:11;5.00;;;3.83;;
5129;SDS011;2583;50.946;6.954;2023-08-24T07:57:37;4.60;;;3.43;;
5129;SDS011;2583;50.946;6.954;2023-08-24T08:00:04;2.97;;;2.73;;
5129;SDS011;2583;50.946;6.954;2023-08-24T08:02:35;3.70;;;3.00;;
5129;SDS011;2583;50.946;6.954;2023-08-24T08:05:04;3.50;;;3.20;;
5129;SDS011;2583;50.946;6.954;2023-08-24T08:07:33;3.37;;;3.10;;
5129;SDS011;2583;50.946;6.954;2023-08-24T08:10:00;5.03;;;3.87;;
5129;SDS011;2583;50.946;6.954;2023-08-24T08:12:27;5.30;;;3.50;;
5129;SDS011;2583;50.946;6.954;2023-08-24T08:14:55;5.17;;;3.73;;
5129;SDS011;2583;50.946;6.954;2023-08-24T08:17:22;3.40;;;3.00;;
5129;SDS011;2583;50.946;6.954;2023-08-24T08:19:53;4.40;;;2.50;;
5129;SDS011;2583;50.946;6.954;2023-08-24T08:22:23;3.40;;;3.10;;
5129;SDS011;2583;50.946;6.954;2023-08-24T08:24:51;4.03;;;3.70;;
5129;SDS011;2583;50.946;6.954;2023-08-24T08:27:20;3.93;;;2.80;;
5129;SDS011;2583;50.946;6.954;2023-08-24T08:29:47;4.23;;;3.40;;
5129;SDS011;2583;50.946;6.954;2023-08-24T08:32:14;5.47;;;3.30;;
5129;SDS011;2583;50.946;6.954;2023-08-24T08:34:41;3.87;;;3.13;;
5129;SDS011;2583;50.946;6.954;2023-08-24T08:37:08;9.63;;;3.60;;
5129;SDS011;2583;50.946;6.954;2023-08-24T08:39:34;3.90;;;2.90;;
5129;SDS011;2583;50.946;6.954;2023-08-24T08:42:02;3.50;;;2.80;;
5129;SDS011;2583;50.946;6.954;2023-08-24T08:44:30;3.67;;;3.37;;
5129;SDS011;2583;50.946;6.954;2023-08-24T08:46:58;6.23;;;2.93;;
5129;SDS011;2583;50.946;6.954;2023-08-24T08:49:25;4.73;;;3.30;;
5129;SDS011;2583;50.946;6.954;2023-08-24T08:51:52;5.23;;;3.10;;
5129;SDS011;2583;50.946;6.954;2023-08-24T08:54:19;4.00;;;2.70;;
5129;SDS011;2583;50.946;6.954;2023-08-24T08:56:46;4.30;;;3.00;;
5129;SDS011;2583;50.946;6.954;2023-08-24T08:59:13;6.63;;;3.50;;
5129;SDS011;2583;50.946;6.954;2023-08-24T09:01:41;4.47;;;2.87;;
5129;SDS011;2583;50.946;6.954;2023-08-24T09:04:10;5.40;;;3.20;;
5129;SDS011;2583;50.946;6.954;2023-08-24T09:06:37;3.97;;;3.00;;
5129;SDS011;2583;50.946;6.954;2023-08-24T09:09:04;3.77;;;2.60;;
5129;SDS011;2583;50.946;6.954;2023-08-24T09:11:32;3.30;;;2.80;;
5129;SDS011;2583;50.946;6.954;2023-08-24T09:13:59;6.37;;;2.93;;
5129;SDS011;2583;50.946;6.954;2023-08-24T09:16:28;3.37;;;3.07;;
5129;SDS011;2583;50.946;6.954;2023-08-24T09:18:56;4.40;;;2.20;;
5129;SDS011;2583;50.946;6.954;2023-08-24T09:21:23;3.80;;;2.43;;
5129;SDS011;2583;50.946;6.954;2023-08-24T09:23:54;7.53;;;4.30;;
5129;SDS011;2583;50.946;6.954;2023-08-24T09:26:32;3.60;;;2.70;;
5129;SDS011;2583;50.946;6.954;2023-08-24T09:29:05;2.97;;;2.77;;
5129;SDS011;2583;50.946;6.954;2023-08-24T09:31:40;5.90;;;2.60;;
5129;SDS011;2583;50.946;6.954;2023-08-24T09:34:10;4.90;;;2.83;;
5129;SDS011;2583;50.946;6.954;2023-08-24T09:36:38;4.37;;;2.70;;
5129;SDS011;2583;50.946;6.954;2023-08-24T09:39:05;3.23;;;3.03;;
5129;SDS011;2583;50.946;6.954;2023-08-24T09:41:43;5.33;;;2.30;;
5129;SDS011;2583;50.946;6.954;2023-08-24T09:44:11;2.80;;;2.60;;
5129;SDS011;2583;50.946;6.954;2023-08-24T09:46:38;4.67;;;2.57;;
5129;SDS011;2583;50.946;6.954;2023-08-24T09:49:07;3.87;;;2.57;;
5129;SDS011;2583;50.946;6.954;2023-08-24T09:51:35;4.03;;;2.67;;
5129;SDS011;2583;50.946;6.954;2023-08-24T09:54:06;3.47;;;3.20;;
5129;SDS011;2583;50.946;6.954;2023-08-24T09:56:37;5.00;;;2.83;;
5129;SDS011;2583;50.946;6.954;2023-08-24T09:59:12;7.80;;;3.37;;
5129;SDS011;2583;50.946;6.954;2023-08-24T10:01:48;3.50;;;3.13;;
5129;SDS011;2583;50.946;6.954;2023-08-24T10:04:22;3.50;;;2.77;;
5129;SDS011;2583;50.946;6.954;2023-08-24T10:06:59;8.27;;;2.60;;
5129;SDS011;2583;50.946;6.954;2023-08-24T10:09:35;3.60;;;2.73;;
5129;SDS011;2583;50.946;6.954;2023-08-24T10:12:18;4.43;;;2.80;;
5129;SDS011;2583;50.946;6.954;2023-08-24T10:17:29;3.60;;;3.30;;
5129;SDS011;2583;50.946;6.954;2023-08-24T10:19:59;6.20;;;3.70;;
5129;SDS011;2583;50.946;6.954;2023-08-24T10:22:35;3.67;;;3.27;;
5129;SDS011;2583;50.946;6.954;2023-08-24T10:25:03;4.10;;;2.80;;
5129;SDS011;2583;50.946;6.954;2023-08-24T10:27:31;6.57;;;3.07;;
5129;SDS011;2583;50.946;6.954;2023-08-24T10:29:58;2.70;;;2.13;;
5129;SDS011;2583;50.946;6.954;2023-08-24T10:32:25;4.00;;;3.07;;
5129;SDS011;2583;50.946;6.954;2023-08-24T10:34:53;6.67;;;2.90;;
5129;SDS011;2583;50.946;6.954;2023-08-24T10:37:27;3.37;;;3.00;;
5129;SDS011;2583;50.946;6.954;2023-08-24T10:39:54;4.80;;;2.17;;
5129;SDS011;2583;50.946;6.954;2023-08-24T10:42:21;4.30;;;2.93;;
5129;SDS011;2583;50.946;6.954;2023-08-24T10:44:48;4.40;;;2.93;;
5129;SDS011;2583;50.946;6.954;2023-08-24T10:47:18;3.40;;;2.43;;
5129;SDS011;2583;50.946;6.954;2023-08-24T10:52:22;4.40;;;2.57;;
5129;SDS011;2583;50.946;6.954;2023-08-24T10:54:51;3.40;;;2.40;;
5129;SDS011;2583;50.946;6.954;2023-08-24T10:59:57;4.37;;;2.30;;
5129;SDS011;2583;50.946;6.954;2023-08-24T11:02:41;5.40;;;2.67;;
5129;SDS011;2583;50.946;6.954;2023-08-24T11:05:15;2.90;;;2.60;;
5129;SDS011;2583;50.946;6.954;2023-08-24T11:08:08;3.30;;;3.00;;
5129;SDS011;2583;50.946;6.954;2023-08-24T11:10:55;3.70;;;2.63;;
5129;SDS011;2583;50.946;6.954;2023-08-24T11:13:22;3.90;;;2.90;;
5129;SDS011;2583;50.946;6.954;2023-08-24T11:15:50;3.87;;;2.53;;
5129;SDS011;2583;50.946;6.954;2023-08-24T11:18:22;5.03;;;2.63;;
5129;SDS011;2583;50.946;6.954;2023-08-24T11:21:03;5.17;;;2.50;;
5129;SDS011;2583;50.946;6.954;2023-08-24T11:23:32;3.00;;;2.53;;
5129;SDS011;2583;50.946;6.954;2023-08-24T11:25:59;3.37;;;2.40;;
5129;SDS011;2583;50.946;6.954;2023-08-24T11:28:27;3.70;;;3.40;;
5129;SDS011;2583;50.946;6.954;2023-08-24T11:30:56;3.67;;;2.60;;
5129;SDS011;2583;50.946;6.954;2023-08-24T11:33:27;3.63;;;2.77;;
5129;SDS011;2583;50.946;6.954;2023-08-24T11:35:55;3.50;;;2.60;;
5129;SDS011;2583;50.946;6.954;2023-08-24T11:38:23;3.73;;;2.83;;
5129;SDS011;2583;50.946;6.954;2023-08-24T11:40:49;3.03;;;2.77;;
5129;SDS011;2583;50.946;6.954;2023-08-24T11:43:26;3.33;;;2.60;;
5129;SDS011;2583;50.946;6.954;2023-08-24T11:45:53;3.50;;;3.00;;
5129;SDS011;2583;50.946;6.954;2023-08-24T11:48:24;5.17;;;2.70;;
5129;SDS011;2583;50.946;6.954;2023-08-24T11:50:52;7.77;;;3.10;;
5129;SDS011;2583;50.946;6.954;2023-08-24T11:53:21;3.17;;;2.70;;
5129;SDS011;2583;50.946;6.954;2023-08-24T11:55:53;8.20;;;3.80;;
5129;SDS011;2583;50.946;6.954;2023-08-24T11:58:31;5.77;;;3.43;;
5129;SDS011;2583;50.946;6.954;2023-08-24T12:00:57;2.90;;;2.60;;
5129;SDS011;2583;50.946;6.954;2023-08-24T12:03:24;6.30;;;3.67;;
5129;SDS011;2583;50.946;6.954;2023-08-24T12:05:51;5.30;;;4.50;;
5129;SDS011;2583;50.946;6.954;2023-08-24T12:08:18;3.20;;;2.60;;
5129;SDS011;2583;50.946;6.954;2023-08-24T12:10:45;4.83;;;2.93;;
5129;SDS011;2583;50.946;6.954;2023-08-24T12:13:12;7.57;;;3.03;;
5129;SDS011;2583;50.946;6.954;2023-08-24T12:15:40;4.53;;;2.53;;
5129;SDS011;2583;50.946;6.954;2023-08-24T12:18:08;5.77;;;3.40;;
5129;SDS011;2583;50.946;6.954;2023-08-24T12:20:35;7.43;;;3.13;;
5129;SDS011;2583;50.946;6.954;2023-08-24T12:23:02;4.63;;;3.07;;
5129;SDS011;2583;50.946;6.954;2023-08-24T12:25:30;6.00;;;3.40;;
5129;SDS011;2583;50.946;6.954;2023-08-24T12:28:15;4.27;;;3.57;;
5129;SDS011;2583;50.946;6.954;2023-08-24T12:30:52;8.50;;;7.60;;
5129;SDS011;2583;50.946;6.954;2023-08-24T12:33:23;5.67;;;4.13;;
5129;SDS011;2583;50.946;6.954;2023-08-24T12:35:54;4.50;;;3.77;;
5129;SDS011;2583;50.946;6.954;2023-08-24T12:38:22;5.90;;;4.67;;
5129;SDS011;2583;50.946;6.954;2023-08-24T12:40:50;7.87;;;4.60;;
5129;SDS011;2583;50.946;6.954;2023-08-24T12:43:17;10.87;;;4.23;;
5129;SDS011;2583;50.946;6.954;2023-08-24T12:45:44;4.23;;;3.83;;
5129;SDS011;2583;50.946;6.954;2023-08-24T12:48:11;7.40;;;3.40;;
5129;SDS011;2583;50.946;6.954;2023-08-24T12:50:38;4.60;;;3.50;;
5129;SDS011;2583;50.946;6.954;2023-08-24T12:53:05;7.10;;;4.00;;
5129;SDS011;2583;50.946;6.954;2023-08-24T12:55:35;7.67;;;3.77;;
5129;SDS011;2583;50.946;6.954;2023-08-24T12:58:09;8.87;;;3.97;;
5129;SDS011;2583;50.946;6.954;2023-08-24T13:00:35;8.27;;;4.33;;
5129;SDS011;2583;50.946;6.954;2023-08-24T13:03:02;5.40;;;4.17;;
5129;SDS011;2583;50.946;6.954;2023-08-24T13:05:30;7.00;;;4.60;;
5129;SDS011;2583;50.946;6.954;2023-08-24T13:07:58;5.97;;;3.80;;
5129;SDS011;2583;50.946;6.954;2023-08-24T13:10:24;6.63;;;3.57;;
5129;SDS011;2583;50.946;6.954;2023-08-24T13:12:51;5.80;;;3.90;;
5129;SDS011;2583;50.946;6.954;2023-08-24T13:15:18;5.13;;;3.70;;
5129;SDS011;2583;50.946;6.954;2023-08-24T13:17:46;7.73;;;3.10;;
5129;SDS011;2583;50.946;6.954;2023-08-24T13:20:13;5.37;;;4.10;;
5129;SDS011;2583;50.946;6.954;2023-08-24T13:22:39;7.90;;;3.53;;
5129;SDS011;2583;50.946;6.954;2023-08-24T13:25:07;5.63;;;3.30;;
5129;SDS011;2583;50.946;6.954;2023-08-24T13:27:35;5.60;;;3.37;;
5129;SDS011;2583;50.946;6.954;2023-08-24T13:30:02;5.77;;;4.23;;
5129;SDS011;2583;50.946;6.954;2023-08-24T13:32:30;7.90;;;4.33;;
5129;SDS011;2583;50.946;6.954;2023-08-24T13:34:57;6.87;;;6.13;;
5129;SDS011;2583;50.946;6.954;2023-08-24T13:37:24;4.83;;;3.63;;
5129;SDS011;2583;50.946;6.954;2023-08-24T13:39:51;4.77;;;2.83;;
5129;SDS011;2583;50.946;6.954;2023-08-24T13:42:18;6.13;;;3.43;;
5129;SDS011;2583;50.946;6.954;2023-08-24T13:44:45;2.83;;;2.63;;
5129;SDS011;2583;50.946;6.954;2023-08-24T13:47:12;3.30;;;2.87;;
5129;SDS011;2583;50.946;6.954;2023-08-24T13:49:39;4.80;;;3.33;;
5129;SDS011;2583;50.946;6.954;2023-08-24T13:52:07;5.50;;;2.70;;
5129;SDS011;2583;50.946;6.954;2023-08-24T13:54:34;3.60;;;3.20;;
5129;SDS011;2583;50.946;6.954;2023-08-24T13:57:01;9.43;;;2.80;;
5129;SDS011;2583;50.946;6.954;2023-08-24T13:59:28;5.30;;;2.97;;
5129;SDS011;2583;50.946;6.954;2023-08-24T14:01:55;3.80;;;3.40;;
5129;SDS011;2583;50.946;6.954;2023-08-24T14:04:22;5.70;;;2.80;;
5129;SDS011;2583;50.946;6.954;2023-08-24T14:06:49;4.60;;;2.77;;
5129;SDS011;2583;50.946;6.954;2023-08-24T14:09:16;10.07;;;3.90;;
5129;SDS011;2583;50.946;6.954;2023-08-24T14:11:43;4.20;;;3.17;;
5129;SDS011;2583;50.946;6.954;2023-08-24T14:14:09;4.23;;;2.90;;
5129;SDS011;2583;50.946;6.954;2023-08-24T14:16:36;7.77;;;2.67;;
5129;SDS011;2583;50.946;6.954;2023-08-24T14:19:03;3.57;;;2.93;;
5129;SDS011;2583;50.946;6.954;2023-08-24T14:21:31;9.30;;;3.40;;
5129;SDS011;2583;50.946;6.954;2023-08-24T14:24:01;5.90;;;3.63;;
5129;SDS011;2583;50.946;6.954;2023-08-24T14:26:29;6.80;;;3.23;;
5129;SDS011;2583;50.946;6.954;2023-08-24T14:28:56;6.40;;;3.00;;
5129;SDS011;2583;50.946;6.954;2023-08-24T14:31:28;7.30;;;2.83;;
5129;SDS011;2583;50.946;6.954;2023-08-24T14:33:56;4.73;;;2.50;;
5129;SDS011;2583;50.946;6.954;2023-08-24T14:36:23;3.43;;;3.13;;
5129;SDS011;2583;50.946;6.954;2023-08-24T14:38:50;5.30;;;2.83;;
5129;SDS011;2583;50.946;6.954;2023-08-24T14:41:20;5.03;;;2.73;;
5129;SDS011;2583;50.946;6.954;2023-08-24T14:43:47;5.60;;;3.00;;
5129;SDS011;2583;50.946;6.954;2023-08-24T14:46:14;4.97;;;2.87;;
5129;SDS011;2583;50.946;6.954;2023-08-24T14:48:41;4.57;;;3.00;;
5129;SDS011;2583;50.946;6.954;2023-08-24T14:51:08;2.43;;;2.23;;
5129;SDS011;2583;50.946;6.954;2023-08-24T14:53:35;5.10;;;3.27;;
5129;SDS011;2583;50.946;6.954;2023-08-24T14:56:01;7.10;;;3.10;;
5129;SDS011;2583;50.946;6.954;2023-08-24T14:58:28;6.50;;;2.60;;
5129;SDS011;2583;50.946;6.954;2023-08-24T15:00:55;5.17;;;2.47;;
5129;SDS011;2583;50.946;6.954;2023-08-24T15:03:24;5.73;;;2.90;;
5129;SDS011;2583;50.946;6.954;2023-08-24T15:06:03;4.10;;;3.10;;
5129;SDS011;2583;50.946;6.954;2023-08-24T15:08:31;6.37;;;5.50;;
5129;SDS011;2583;50.946;6.954;2023-08-24T15:11:00;4.90;;;3.63;;
5129;SDS011;2583;50.946;6.954;2023-08-24T15:13:29;8.03;;;2.57;;
5129;SDS011;2583;50.946;6.954;2023-08-24T15:15:56;5.67;;;2.47;;
5129;SDS011;2583;50.946;6.954;2023-08-24T15:18:24;2.90;;;2.23;;
5129;SDS011;2583;50.946;6.954;2023-08-24T15:20:53;7.37;;;2.83;;
5129;SDS011;2583;50.946;6.954;2023-08-24T15:23:20;2.97;;;2.17;;
5129;SDS011;2583;50.946;6.954;2023-08-24T15:25:52;3.63;;;2.30;;
5129;SDS011;2583;50.946;6.954;2023-08-24T15:28:23;3.17;;;2.60;;
5129;SDS011;2583;50.946;6.954;2023-08-24T15:30:51;4.00;;;2.57;;
5129;SDS011;2583;50.946;6.954;2023-08-24T15:33:18;3.90;;;2.60;;